createdAt,value
2023-08-11T00:00:52.723Z,60.26
2023-08-11T00:03:19.535Z,60.25
2023-08-11T00:05:46.898Z,60.42
2023-08-11T00:08:14.453Z,60.44
2023-08-11T00:10:42.030Z,60.39
2023-08-11T00:13:13.783Z,60.89
2023-08-11T00:15:41.246Z,60.80
2023-08-11T00:18:11.381Z,60.70
2023-08-11T00:20:38.598Z,60.50
2023-08-11T00:23:06.037Z,60.77
2023-08-11T00:25:33.027Z,60.80
2023-08-11T00:28:02.310Z,60.84
2023-08-11T00:30:28.999Z,60.67
2023-08-11T00:32:55.833Z,60.94
2023-08-11T00:35:25.595Z,61.20
2023-08-11T00:37:52.299Z,60.85
2023-08-11T00:40:19.306Z,61.00
2023-08-11T00:42:46.846Z,60.90
2023-08-11T00:45:13.816Z,61.27
2023-08-11T00:47:43.206Z,60.83
2023-08-11T00:50:15.064Z,61.11
2023-08-11T00:52:45.686Z,60.75
2023-08-11T00:55:14.111Z,60.83
2023-08-11T00:57:42.112Z,60.82
2023-08-11T01:00:16.731Z,60.78
2023-08-11T01:02:46.103Z,60.64
2023-08-11T01:05:16.995Z,60.78
2023-08-11T01:08:13.468Z,61.22
2023-08-11T01:11:34.608Z,61.19
2023-08-11T01:14:16.677Z,61.07
2023-08-11T01:16:49.285Z,60.89
2023-08-11T01:19:29.649Z,61.11
2023-08-11T01:22:00.942Z,60.88
2023-08-11T01:24:32.585Z,61.14
2023-08-11T01:27:00.068Z,61.66
2023-08-11T01:29:27.523Z,61.51
2023-08-11T01:31:54.318Z,61.92
2023-08-11T01:34:22.416Z,61.52
2023-08-11T01:37:05.383Z,61.41
2023-08-11T01:39:33.197Z,61.55
2023-08-11T01:41:59.917Z,61.18
2023-08-11T01:44:26.973Z,61.38
2023-08-11T01:46:57.532Z,61.32
2023-08-11T01:49:28.188Z,61.49
2023-08-11T01:51:57.240Z,61.68
2023-08-11T01:54:24.729Z,61.73
2023-08-11T01:56:52.848Z,61.86
2023-08-11T01:59:19.539Z,61.90
2023-08-11T02:01:46.338Z,61.60
2023-08-11T02:04:14.026Z,61.94
2023-08-11T02:06:41.686Z,62.04
2023-08-11T02:09:13.625Z,61.97
2023-08-11T02:11:40.694Z,62.30
2023-08-11T02:14:07.470Z,62.21
2023-08-11T02:16:34.783Z,62.19
2023-08-11T02:19:01.666Z,62.26
2023-08-11T02:21:29.707Z,62.15
2023-08-11T02:23:56.596Z,62.16
2023-08-11T02:26:23.789Z,61.75
2023-08-11T02:28:50.893Z,61.79
2023-08-11T02:31:19.218Z,62.16
2023-08-11T02:33:46.413Z,62.22
2023-08-11T02:36:18.570Z,62.13
2023-08-11T02:38:45.214Z,62.51
2023-08-11T02:41:12.354Z,62.60
2023-08-11T02:43:39.033Z,62.87
2023-08-11T02:46:07.177Z,62.97
2023-08-11T02:48:35.072Z,63.11
2023-08-11T02:51:04.956Z,62.85
2023-08-11T02:53:32.905Z,62.34
2023-08-11T02:56:07.671Z,62.52
2023-08-11T02:58:34.823Z,62.81
2023-08-11T03:01:02.196Z,62.93
2023-08-11T03:03:29.962Z,62.83
2023-08-11T03:05:58.074Z,62.34
2023-08-11T03:08:24.962Z,62.36
2023-08-11T03:10:57.126Z,62.78
2023-08-11T03:13:25.087Z,63.08
2023-08-11T03:15:53.428Z,63.15
2023-08-11T03:18:20.820Z,62.85
2023-08-11T03:20:48.732Z,62.62
2023-08-11T03:23:18.452Z,62.69
2023-08-11T03:25:45.924Z,63.00
2023-08-11T03:28:12.739Z,62.87
2023-08-11T03:30:39.778Z,62.71
2023-08-11T03:33:06.892Z,62.27
2023-08-11T03:35:37.415Z,62.21
2023-08-11T03:38:04.367Z,62.08
2023-08-11T03:40:31.129Z,62.35
2023-08-11T03:42:57.775Z,62.60
2023-08-11T03:45:25.268Z,62.81
2023-08-11T03:47:52.273Z,62.62
2023-08-11T03:50:19.122Z,62.61
2023-08-11T03:52:46.279Z,62.92
2023-08-11T03:55:13.733Z,63.22
2023-08-11T03:57:40.514Z,62.81
2023-08-11T04:00:16.126Z,62.85
2023-08-11T04:02:45.114Z,63.18
2023-08-11T04:05:12.210Z,63.11
2023-08-11T04:07:40.028Z,63.33
2023-08-11T04:10:07.848Z,63.52
2023-08-11T04:12:34.603Z,63.71
2023-08-11T04:15:01.360Z,63.80
2023-08-11T04:17:28.138Z,63.85
2023-08-11T04:19:55.162Z,64.19
2023-08-11T04:22:32.780Z,64.11
2023-08-11T04:25:06.391Z,64.00
2023-08-11T04:27:33.044Z,64.24
2023-08-11T04:29:59.829Z,64.14
2023-08-11T04:32:26.629Z,64.43
2023-08-11T04:34:53.418Z,64.08
2023-08-11T04:37:20.071Z,63.80
2023-08-11T04:39:46.790Z,63.92
2023-08-11T04:42:17.555Z,64.43
2023-08-11T04:44:44.550Z,64.29
2023-08-11T04:47:11.612Z,64.14
2023-08-11T04:49:38.367Z,64.51
2023-08-11T04:52:05.163Z,64.35
2023-08-11T04:54:31.820Z,64.16
2023-08-11T04:56:58.470Z,64.56
2023-08-11T04:59:25.720Z,64.51
2023-08-11T05:01:52.419Z,64.31
2023-08-11T05:04:19.089Z,64.11
2023-08-11T05:06:45.748Z,63.90
2023-08-11T05:09:12.370Z,63.91
2023-08-11T05:11:39.073Z,63.90
2023-08-11T05:14:06.042Z,63.96
2023-08-11T05:16:32.688Z,63.76
2023-08-11T05:18:59.428Z,63.96
2023-08-11T05:21:26.215Z,64.04
2023-08-11T05:23:52.970Z,64.42
2023-08-11T05:26:19.745Z,64.38
2023-08-11T05:28:46.813Z,63.86
2023-08-11T05:31:13.613Z,64.28
2023-08-11T05:33:42.637Z,64.18
2023-08-11T05:36:10.039Z,64.55
2023-08-11T05:38:36.763Z,65.10
2023-08-11T05:41:04.291Z,64.98
2023-08-11T05:43:31.171Z,64.79
2023-08-11T05:45:58.455Z,64.86
2023-08-11T05:48:25.402Z,64.70
2023-08-11T05:50:52.254Z,64.89
2023-08-11T05:53:18.909Z,64.51
2023-08-11T05:55:45.619Z,64.45
2023-08-11T05:58:12.353Z,64.83
2023-08-11T06:00:39.214Z,64.88
2023-08-11T06:03:05.958Z,64.65
2023-08-11T06:05:33.733Z,65.28
2023-08-11T06:08:06.819Z,65.08
2023-08-11T06:10:34.909Z,64.77
2023-08-11T06:13:01.789Z,64.83
2023-08-11T06:15:28.485Z,65.01
2023-08-11T06:17:55.212Z,65.41
2023-08-11T06:20:34.383Z,65.14
2023-08-11T06:23:06.225Z,65.50
2023-08-11T06:25:32.909Z,65.49
2023-08-11T06:27:59.594Z,65.12
2023-08-11T06:30:29.194Z,64.70
2023-08-11T06:32:56.341Z,64.68
2023-08-11T06:35:23.459Z,64.73
2023-08-11T06:37:50.319Z,64.73
2023-08-11T06:40:17.178Z,64.51
2023-08-11T06:42:44.176Z,64.72
2023-08-11T06:45:11.699Z,64.16
2023-08-11T06:47:38.728Z,64.00
2023-08-11T06:50:06.195Z,63.50
2023-08-11T06:52:33.011Z,63.14
2023-08-11T06:54:59.775Z,62.83
2023-08-11T06:57:26.594Z,62.48
2023-08-11T06:59:53.356Z,61.72
2023-08-11T07:02:20.117Z,61.88
2023-08-11T07:04:46.818Z,61.42
2023-08-11T07:07:14.740Z,61.19
2023-08-11T07:09:42.754Z,60.95
2023-08-11T07:12:09.533Z,60.46
2023-08-11T07:14:36.343Z,60.37
2023-08-11T07:17:03.548Z,60.11
2023-08-11T07:19:30.359Z,60.06
2023-08-11T07:21:57.082Z,60.30
2023-08-11T07:24:23.744Z,60.49
2023-08-11T07:26:50.540Z,60.48
2023-08-11T07:29:17.211Z,59.90
2023-08-11T07:31:45.302Z,59.52
2023-08-11T07:34:12.348Z,59.67
2023-08-11T07:36:39.345Z,59.65
2023-08-11T07:39:22.129Z,59.49
2023-08-11T07:41:52.221Z,59.38
2023-08-11T07:44:19.325Z,59.15
2023-08-11T07:46:46.314Z,59.01
2023-08-11T07:49:13.656Z,58.90
2023-08-11T07:51:42.252Z,59.25
2023-08-11T07:54:09.960Z,59.28
2023-08-11T07:56:36.961Z,59.11
2023-08-11T07:59:03.958Z,59.03
2023-08-11T08:01:31.031Z,59.09
2023-08-11T08:03:57.869Z,58.93
2023-08-11T08:06:25.174Z,59.26
2023-08-11T08:08:52.033Z,58.81
2023-08-11T08:11:18.823Z,58.95
2023-08-11T08:13:45.564Z,59.03
2023-08-11T08:16:12.814Z,58.97
2023-08-11T08:18:39.641Z,58.94
2023-08-11T08:21:06.995Z,58.92
2023-08-11T08:23:34.256Z,58.91
2023-08-11T08:26:01.020Z,58.68
2023-08-11T08:28:34.358Z,58.61
2023-08-11T08:31:01.268Z,58.56
2023-08-11T08:33:29.127Z,58.51
2023-08-11T08:36:11.480Z,58.88
2023-08-11T08:38:38.192Z,58.73
2023-08-11T08:41:12.646Z,58.58
2023-08-11T08:43:39.425Z,58.59
2023-08-11T08:46:08.107Z,57.98
2023-08-11T08:49:02.388Z,58.31
2023-08-11T08:51:33.814Z,58.42
2023-08-11T08:54:09.362Z,58.29
2023-08-11T08:56:41.165Z,58.03
2023-08-11T08:59:10.321Z,57.76
2023-08-11T09:01:38.991Z,57.90
2023-08-11T09:04:08.214Z,58.50
2023-08-11T09:06:36.751Z,58.34
2023-08-11T09:09:06.020Z,58.55
2023-08-11T09:11:32.987Z,57.74
2023-08-11T09:14:14.174Z,57.88
2023-08-11T09:16:41.541Z,57.72
2023-08-11T09:19:14.166Z,57.51
2023-08-11T09:21:44.851Z,57.65
2023-08-11T09:24:16.077Z,57.45
2023-08-11T09:26:45.832Z,57.77
2023-08-11T09:29:15.009Z,57.79
2023-08-11T09:31:42.751Z,57.87
2023-08-11T09:34:20.943Z,57.75
2023-08-11T09:36:50.095Z,57.87
2023-08-11T09:39:18.369Z,57.92
2023-08-11T09:41:50.220Z,57.62
2023-08-11T09:44:19.750Z,57.09
2023-08-11T09:46:47.588Z,56.89
2023-08-11T09:49:21.843Z,56.94
2023-08-11T09:51:54.966Z,57.07
2023-08-11T09:54:24.003Z,56.81
2023-08-11T09:56:54.710Z,56.80
2023-08-11T09:59:27.285Z,56.87
2023-08-11T10:02:02.971Z,56.96
2023-08-11T10:04:44.558Z,56.93
2023-08-11T10:07:17.278Z,56.76
2023-08-11T10:09:48.422Z,56.35
2023-08-11T10:12:16.174Z,56.12
2023-08-11T10:14:44.037Z,55.93
2023-08-11T10:17:17.313Z,56.19
2023-08-11T10:19:44.596Z,56.07
2023-08-11T10:22:12.855Z,55.97
2023-08-11T10:24:42.045Z,55.63
2023-08-11T10:27:09.448Z,55.75
2023-08-11T10:29:40.484Z,55.44
2023-08-11T10:32:12.048Z,55.33
2023-08-11T10:34:38.940Z,55.62
2023-08-11T10:37:08.591Z,55.13
2023-08-11T10:39:40.222Z,54.81
2023-08-11T10:42:14.069Z,54.92
2023-08-11T10:44:47.684Z,54.83
2023-08-11T10:47:14.547Z,54.72
2023-08-11T10:49:44.373Z,54.35
2023-08-11T10:52:12.947Z,54.25
2023-08-11T10:54:52.017Z,53.72
2023-08-11T10:57:18.811Z,53.80
2023-08-11T10:59:45.597Z,53.74
2023-08-11T11:02:13.949Z,53.63
2023-08-11T11:04:42.775Z,53.39
2023-08-11T11:07:09.448Z,53.44
2023-08-11T11:09:36.189Z,53.06
2023-08-11T11:12:02.911Z,52.95
2023-08-11T11:14:31.288Z,52.51
2023-08-11T11:17:01.103Z,52.16
2023-08-11T11:19:28.683Z,52.25
2023-08-11T11:21:55.988Z,52.38
2023-08-11T11:24:23.077Z,52.32
2023-08-11T11:26:50.089Z,51.85
2023-08-11T11:29:22.217Z,51.75
2023-08-11T11:31:49.070Z,51.51
2023-08-11T11:34:15.912Z,50.82
2023-08-11T11:36:43.147Z,50.66
2023-08-11T11:39:11.056Z,50.09
2023-08-11T11:41:37.758Z,49.69
2023-08-11T11:44:04.865Z,49.67
2023-08-11T11:46:34.011Z,48.98
2023-08-11T11:49:12.664Z,48.63
2023-08-11T11:51:47.552Z,48.55
2023-08-11T11:54:14.473Z,48.06
2023-08-11T11:56:47.132Z,47.59
2023-08-11T11:59:17.438Z,47.06
2023-08-11T12:01:44.682Z,46.40
2023-08-11T12:04:11.958Z,45.70
2023-08-11T12:06:38.832Z,44.93
2023-08-11T12:09:11.690Z,44.20
2023-08-11T12:11:41.778Z,43.97
2023-08-11T12:14:08.814Z,43.53
2023-08-11T12:16:37.202Z,43.07
2023-08-11T12:19:04.787Z,43.55
2023-08-11T12:21:34.781Z,42.84
2023-08-11T12:24:01.809Z,42.83
2023-08-11T12:26:29.675Z,42.46
2023-08-11T12:28:59.556Z,40.81
2023-08-11T12:31:26.343Z,39.87
2023-08-11T12:33:53.130Z,39.34
2023-08-11T12:36:20.151Z,39.08
2023-08-11T12:38:48.891Z,38.55
2023-08-11T12:41:19.028Z,38.57
2023-08-11T12:43:45.775Z,38.21
2023-08-11T12:46:12.662Z,37.96
2023-08-11T12:48:39.404Z,37.64
2023-08-11T12:51:06.688Z,37.05
2023-08-11T12:53:33.428Z,36.21
2023-08-11T12:56:00.237Z,35.51
2023-08-11T12:58:27.773Z,35.01
2023-08-11T13:00:54.457Z,34.79
2023-08-11T13:03:21.267Z,34.56
2023-08-11T13:05:48.888Z,34.62
2023-08-11T13:08:15.566Z,34.61
2023-08-11T13:10:42.450Z,35.23
2023-08-11T13:13:10.825Z,35.36
2023-08-11T13:15:39.700Z,35.78
2023-08-11T13:18:06.457Z,35.82
2023-08-11T13:20:33.248Z,35.85
2023-08-11T13:22:59.930Z,36.00
2023-08-11T13:25:26.665Z,35.98
2023-08-11T13:27:53.374Z,36.00
2023-08-11T13:30:22.344Z,35.97
2023-08-11T13:32:49.222Z,36.19
2023-08-11T13:35:25.350Z,36.02
2023-08-11T13:37:52.152Z,35.71
2023-08-11T13:40:20.177Z,35.30
2023-08-11T13:42:46.870Z,34.94
2023-08-11T13:45:14.593Z,34.64
2023-08-11T13:47:41.497Z,34.49
2023-08-11T13:50:08.880Z,34.50
2023-08-11T13:52:35.628Z,34.15
2023-08-11T13:55:07.200Z,33.94
2023-08-11T13:57:35.309Z,34.35
2023-08-11T14:00:02.044Z,34.47
2023-08-11T14:02:31.949Z,34.74
2023-08-11T14:04:58.764Z,34.47
2023-08-11T14:07:30.644Z,34.60
2023-08-11T14:09:59.403Z,34.57
2023-08-11T14:12:26.135Z,34.58
2023-08-11T14:14:52.769Z,34.81
2023-08-11T14:17:19.493Z,35.04
2023-08-11T14:19:46.151Z,35.14
2023-08-11T14:22:12.824Z,35.41
2023-08-11T14:24:39.563Z,35.44
2023-08-11T14:27:07.122Z,35.89
2023-08-11T14:29:33.772Z,35.97
2023-08-11T14:32:13.841Z,35.91
2023-08-11T14:34:45.319Z,36.15
2023-08-11T14:37:15.147Z,36.27
2023-08-11T14:39:43.713Z,36.40
2023-08-11T14:42:10.525Z,36.74
2023-08-11T14:44:37.644Z,36.72
2023-08-11T14:47:04.382Z,37.14
2023-08-11T14:49:31.100Z,37.01
2023-08-11T14:51:57.775Z,37.03
2023-08-11T14:54:27.744Z,37.03
2023-08-11T14:56:55.599Z,36.80
2023-08-11T14:59:22.361Z,36.67
2023-08-11T15:01:49.170Z,36.43
2023-08-11T15:04:15.887Z,36.80
2023-08-11T15:06:42.576Z,36.80
2023-08-11T15:09:09.488Z,37.00
2023-08-11T15:11:36.762Z,37.08
2023-08-11T15:14:03.679Z,37.85
2023-08-11T15:16:30.726Z,38.07
2023-08-11T15:18:57.519Z,38.14
2023-08-11T15:21:25.360Z,38.49
2023-08-11T15:23:52.066Z,38.45
2023-08-11T15:26:19.544Z,39.01
2023-08-11T15:28:46.206Z,39.45
2023-08-11T15:31:13.018Z,39.71
2023-08-11T15:33:39.819Z,40.51
2023-08-11T15:36:06.554Z,40.50
2023-08-11T15:38:33.330Z,40.71
2023-08-11T15:41:03.764Z,40.30
2023-08-11T15:43:32.964Z,38.65
2023-08-11T15:45:59.926Z,36.28
2023-08-11T15:48:28.618Z,34.17
2023-08-11T15:50:55.633Z,32.83
2023-08-11T15:53:22.650Z,31.60
2023-08-11T15:55:49.432Z,30.52
2023-08-11T15:58:16.253Z,29.32
2023-08-11T16:00:43.591Z,29.55
2023-08-11T16:03:10.744Z,28.90
2023-08-11T16:05:37.741Z,28.30
2023-08-11T16:08:05.300Z,27.80
2023-08-11T16:10:37.682Z,27.22
2023-08-11T16:13:04.855Z,26.51
2023-08-11T16:15:32.254Z,26.13
2023-08-11T16:17:58.929Z,25.71
2023-08-11T16:20:25.777Z,25.05
2023-08-11T16:22:53.231Z,24.66
2023-08-11T16:25:20.204Z,24.80
2023-08-11T16:27:46.861Z,24.46
2023-08-11T16:30:14.139Z,25.22
2023-08-11T16:32:40.871Z,26.01
2023-08-11T16:35:09.173Z,27.22
2023-08-11T16:37:36.051Z,28.32
2023-08-11T16:40:03.897Z,27.98
2023-08-11T16:42:30.641Z,28.78
2023-08-11T16:44:57.325Z,29.87
2023-08-11T16:47:24.034Z,30.66
2023-08-11T16:49:51.529Z,31.81
2023-08-11T16:52:18.174Z,32.34
2023-08-11T16:54:44.874Z,33.47
2023-08-11T16:57:13.520Z,34.14
2023-08-11T16:59:40.434Z,35.29
2023-08-11T17:02:07.219Z,36.06
2023-08-11T17:04:33.921Z,36.86
2023-08-11T17:07:00.605Z,37.57
2023-08-11T17:09:27.330Z,38.13
2023-08-11T17:11:54.012Z,38.90
2023-08-11T17:14:20.663Z,39.22
2023-08-11T17:16:47.375Z,39.52
2023-08-11T17:19:14.013Z,39.83
2023-08-11T17:21:42.641Z,40.00
2023-08-11T17:24:09.274Z,39.69
2023-08-11T17:26:35.955Z,40.10
2023-08-11T17:29:02.594Z,40.31
2023-08-11T17:31:29.388Z,40.68
2023-08-11T17:33:56.148Z,40.55
2023-08-11T17:36:27.376Z,40.80
2023-08-11T17:38:55.995Z,40.92
2023-08-11T17:41:25.147Z,41.64
2023-08-11T17:43:52.698Z,41.66
2023-08-11T17:46:20.716Z,42.41
2023-08-11T17:48:47.551Z,42.45
2023-08-11T17:51:14.335Z,42.75
2023-08-11T17:53:41.649Z,43.11
2023-08-11T17:56:09.237Z,43.59
2023-08-11T17:58:35.946Z,43.95
2023-08-11T18:01:02.693Z,44.22
2023-08-11T18:03:29.532Z,44.98
2023-08-11T18:05:56.698Z,45.29
2023-08-11T18:08:23.425Z,45.71
2023-08-11T18:10:50.176Z,46.23
2023-08-11T18:13:17.651Z,46.44
2023-08-11T18:15:44.486Z,47.07
2023-08-11T18:18:11.180Z,47.49
2023-08-11T18:20:37.914Z,47.82
2023-08-11T18:23:04.616Z,48.16
2023-08-11T18:25:31.497Z,48.67
2023-08-11T18:27:58.252Z,48.67
2023-08-11T18:30:24.885Z,48.94
2023-08-11T18:32:51.627Z,49.02
2023-08-11T18:35:18.415Z,49.28
2023-08-11T18:37:45.083Z,49.50
2023-08-11T18:40:12.272Z,49.74
2023-08-11T18:42:39.043Z,50.26
2023-08-11T18:45:07.275Z,50.80
2023-08-11T18:47:35.166Z,50.67
2023-08-11T18:50:02.073Z,51.06
2023-08-11T18:52:28.689Z,51.58
2023-08-11T18:54:55.391Z,51.59
2023-08-11T18:57:22.107Z,51.73
2023-08-11T18:59:48.838Z,52.19
2023-08-11T19:02:16.040Z,52.35
2023-08-11T19:04:42.889Z,52.63
2023-08-11T19:07:09.606Z,52.91
2023-08-11T19:09:36.338Z,52.86
2023-08-11T19:12:03.070Z,53.38
2023-08-11T19:14:30.119Z,53.23
2023-08-11T19:16:57.580Z,53.50
2023-08-11T19:19:24.595Z,53.90
2023-08-11T19:21:51.218Z,54.02
2023-08-11T19:24:17.990Z,53.87
2023-08-11T19:26:45.833Z,54.52
2023-08-11T19:29:13.493Z,54.62
2023-08-11T19:31:40.335Z,54.82
2023-08-11T19:34:07.091Z,54.88
2023-08-11T19:36:35.121Z,55.06
2023-08-11T19:39:03.682Z,55.09
2023-08-11T19:41:30.323Z,55.50
2023-08-11T19:43:57.546Z,55.37
2023-08-11T19:46:24.372Z,55.40
2023-08-11T19:48:51.105Z,55.94
2023-08-11T19:51:17.792Z,55.93
2023-08-11T19:53:44.987Z,56.10
2023-08-11T19:56:11.672Z,56.30
2023-08-11T19:58:38.348Z,56.48
2023-08-11T20:01:07.060Z,56.54
2023-08-11T20:03:33.860Z,56.60
2023-08-11T20:06:01.058Z,56.89
2023-08-11T20:08:27.833Z,57.07
2023-08-11T20:10:54.514Z,57.04
2023-08-11T20:13:21.235Z,56.89
2023-08-11T20:15:48.090Z,57.13
2023-08-11T20:18:14.996Z,57.28
2023-08-11T20:20:45.510Z,57.52
2023-08-11T20:23:12.263Z,57.66
2023-08-11T20:25:39.230Z,58.02
2023-08-11T20:28:06.373Z,57.88
2023-08-11T20:30:33.176Z,57.79
2023-08-11T20:33:00.183Z,57.75
2023-08-11T20:35:28.659Z,58.09
2023-08-11T20:37:58.791Z,58.33
2023-08-11T20:40:25.474Z,58.38
2023-08-11T20:42:52.238Z,58.48
2023-08-11T20:45:19.060Z,58.48
2023-08-11T20:47:45.744Z,58.61
2023-08-11T20:50:12.488Z,58.68
2023-08-11T20:52:39.220Z,58.91
2023-08-11T20:55:06.572Z,59.07
2023-08-11T20:57:33.253Z,59.15
2023-08-11T20:59:59.911Z,58.90
2023-08-11T21:02:26.587Z,59.08
2023-08-11T21:04:53.212Z,59.22
2023-08-11T21:07:19.879Z,59.26
2023-08-11T21:09:46.619Z,59.28
2023-08-11T21:12:13.316Z,59.42
2023-08-11T21:14:39.942Z,59.58
2023-08-11T21:17:09.292Z,59.71
2023-08-11T21:19:36.385Z,59.81
2023-08-11T21:22:03.230Z,60.01
2023-08-11T21:24:29.921Z,59.92
2023-08-11T21:26:56.638Z,60.02
2023-08-11T21:29:23.352Z,60.16
2023-08-11T21:31:50.128Z,60.10
2023-08-11T21:34:16.854Z,60.15
2023-08-11T21:36:43.628Z,60.32
2023-08-11T21:39:11.048Z,60.19
2023-08-11T21:41:37.771Z,60.48
2023-08-11T21:44:04.804Z,60.26
2023-08-11T21:46:32.089Z,60.25
2023-08-11T21:48:58.956Z,60.59
2023-08-11T21:51:26.464Z,60.53
2023-08-11T21:53:53.281Z,60.77
2023-08-11T21:56:19.960Z,60.88
2023-08-11T21:58:46.724Z,60.68
2023-08-11T22:01:13.671Z,60.89
2023-08-11T22:03:40.353Z,60.77
2023-08-11T22:06:07.222Z,60.69
2023-08-11T22:08:34.053Z,60.79
2023-08-11T22:11:00.797Z,60.95
2023-08-11T22:13:27.647Z,60.97
2023-08-11T22:15:54.415Z,60.95
2023-08-11T22:18:21.119Z,61.46
2023-08-11T22:20:47.830Z,61.27
2023-08-11T22:23:14.522Z,61.33
2023-08-11T22:25:41.236Z,61.19
2023-08-11T22:28:08.563Z,61.36
2023-08-11T22:30:36.062Z,61.26
2023-08-11T22:33:03.472Z,61.51
2023-08-11T22:35:30.376Z,61.30
2023-08-11T22:37:57.874Z,61.63
2023-08-11T22:40:24.558Z,61.50
2023-08-11T22:42:51.248Z,61.51
2023-08-11T22:45:18.142Z,61.61
2023-08-11T22:47:45.026Z,61.63
2023-08-11T22:50:11.804Z,61.87
2023-08-11T22:52:38.481Z,61.65
2023-08-11T22:55:05.735Z,62.01
2023-08-11T22:57:32.376Z,61.84
2023-08-11T22:59:59.104Z,61.75
2023-08-11T23:02:25.956Z,61.90
2023-08-11T23:04:55.471Z,61.89
2023-08-11T23:07:25.766Z,62.03
2023-08-11T23:09:52.480Z,61.86
2023-08-11T23:12:19.098Z,62.00
2023-08-11T23:14:45.797Z,62.69
2023-08-11T23:17:12.744Z,62.60
2023-08-11T23:19:39.765Z,62.43
2023-08-11T23:22:06.533Z,62.67
2023-08-11T23:24:33.919Z,63.00
2023-08-11T23:27:01.803Z,62.72
2023-08-11T23:29:28.439Z,62.93
2023-08-11T23:31:55.225Z,63.26
2023-08-11T23:34:21.992Z,63.05
2023-08-11T23:36:48.691Z,62.89
2023-08-11T23:39:15.344Z,62.94
2023-08-11T23:41:41.995Z,62.74
2023-08-11T23:44:08.693Z,63.13
2023-08-11T23:46:35.421Z,62.80
2023-08-11T23:49:02.106Z,62.93
2023-08-11T23:51:28.794Z,63.02
2023-08-11T23:53:57.390Z,63.18
2023-08-11T23:56:24.391Z,63.56
2023-08-11T23:58:52.073Z,63.54
